Time;durP1;ratioP1;P1;durP2;ratioP2;P2;SDS_P1;SDS_P2;PMS_P1;PMS_P2;Temp;Humidity;BMP_temperature;BMP_pressure;BME280_temperature;BME280_humidity;BME280_pressure;Samples;Min_cycle;Max_cycle;Signal;HPM_P1;HPM_P2
2022/06/06 00:00:00;;;;;;;7.55;6.85;;;16.40;99.90;;;;;;5083447;28;20537;-49
2022/06/06 00:02:27;;;;;;;8.60;7.68;;;16.40;99.90;;;;;;5090486;28;20024;-52
2022/06/06 00:04:53;;;;;;;8.27;7.47;;;16.40;99.90;;;;;;5078638;28;20032;-49
2022/06/06 00:07:19;;;;;;;9.00;7.93;;;16.40;99.90;;;;;;5087470;28;20031;-52
2022/06/06 00:09:45;;;;;;;8.05;7.07;;;16.40;99.90;;;;;;5060491;28;20410;-53
2022/06/06 00:12:11;;;;;;;8.85;7.80;;;16.40;99.90;;;;;;5087196;28;20013;-46
2022/06/06 00:14:36;;;;;;;8.88;8.05;;;16.40;99.90;;;;;;5092222;28;20095;-48
2022/06/06 00:17:02;;;;;;;10.23;8.55;;;16.40;99.90;;;;;;5099458;28;20489;-49
2022/06/06 00:19:28;;;;;;;9.10;8.20;;;16.40;99.90;;;;;;5090897;28;20020;-48
2022/06/06 00:21:54;;;;;;;8.65;7.80;;;16.40;99.90;;;;;;5096465;28;20489;-48
2022/06/06 00:24:20;;;;;;;8.52;7.82;;;16.40;99.90;;;;;;5088536;28;20428;-49
2022/06/06 00:26:45;;;;;;;8.77;7.97;;;16.40;99.90;;;;;;5091342;28;20123;-46
2022/06/06 00:29:15;;;;;;;8.65;7.72;;;16.40;99.90;;;;;;5091724;28;20021;-47
2022/06/06 00:37:12;;;;;;;8.70;7.80;;;16.40;99.90;;;;;;5086891;28;20035;-46
2022/06/06 00:39:39;;;;;;;10.23;8.63;;;16.40;99.90;;;;;;5091845;28;20020;-46
2022/06/06 00:42:13;;;;;;;8.00;7.28;;;16.40;99.90;;;;;;5079907;28;20537;-47
2022/06/06 00:44:40;;;;;;;9.18;8.32;;;16.40;99.90;;;;;;5091214;28;20019;-48
2022/06/06 00:47:28;;;;;;;12.85;9.15;;;16.40;99.90;;;;;;5096711;28;20486;-46
2022/06/06 00:50:01;;;;;;;10.60;9.38;;;16.40;99.90;;;;;;5091058;28;20024;-49
2022/06/06 00:52:33;;;;;;;10.82;9.80;;;16.30;99.90;;;;;;5097186;28;20124;-50
2022/06/06 00:55:03;;;;;;;12.43;9.57;;;16.30;99.90;;;;;;5091395;28;20114;-47
2022/06/06 00:57:32;;;;;;;11.35;9.38;;;16.20;99.90;;;;;;5095832;28;20103;-47
2022/06/06 01:00:03;;;;;;;11.77;9.43;;;16.20;99.90;;;;;;5100724;28;20023;-48
2022/06/06 01:02:28;;;;;;;11.55;9.68;;;16.20;99.90;;;;;;5091426;28;20032;-47
2022/06/06 01:04:55;;;;;;;11.13;9.93;;;16.20;99.90;;;;;;5099089;28;20039;-49
2022/06/06 01:07:21;;;;;;;9.93;8.93;;;16.20;99.90;;;;;;5084308;28;20084;-49
2022/06/06 01:09:47;;;;;;;12.25;9.93;;;16.20;99.90;;;;;;5079123;28;20020;-48
2022/06/06 01:12:16;;;;;;;12.18;9.45;;;16.20;99.90;;;;;;5090144;28;20024;-47
2022/06/06 01:14:56;;;;;;;11.10;9.73;;;16.20;99.90;;;;;;5095275;28;20118;-46
2022/06/06 01:17:57;;;;;;;10.70;9.60;;;16.20;99.90;;;;;;5087359;28;20065;-48
2022/06/06 01:21:01;;;;;;;10.20;9.20;;;16.20;99.90;;;;;;5059643;28;20115;-50
2022/06/06 01:23:49;;;;;;;11.18;10.18;;;16.20;99.90;;;;;;5064929;28;20031;-47
2022/06/06 01:26:32;;;;;;;11.25;9.10;;;16.20;99.90;;;;;;5090308;28;20386;-46
2022/06/06 01:29:06;;;;;;;12.25;9.88;;;16.20;99.90;;;;;;5093906;28;20028;-47
2022/06/06 01:31:50;;;;;;;10.23;9.15;;;16.20;99.90;;;;;;5089325;28;20481;-47
2022/06/06 01:34:25;;;;;;;11.82;9.80;;;16.20;99.90;;;;;;5072488;28;20028;-47
2022/06/06 01:36:53;;;;;;;10.57;9.50;;;16.20;99.90;;;;;;5095627;28;20015;-46
2022/06/06 01:39:22;;;;;;;12.65;10.57;;;16.20;99.90;;;;;;5095047;28;20020;-47
2022/06/06 01:41:47;;;;;;;11.05;9.95;;;16.20;99.90;;;;;;5093179;28;20028;-48
2022/06/06 01:44:19;;;;;;;11.93;10.73;;;16.20;99.90;;;;;;5092547;28;20020;-46
2022/06/06 01:46:46;;;;;;;11.15;9.98;;;16.20;99.90;;;;;;5098325;28;20030;-46
2022/06/06 01:49:14;;;;;;;12.55;10.45;;;16.10;99.90;;;;;;5073012;28;20056;-47
2022/06/06 01:51:40;;;;;;;10.30;9.40;;;16.10;99.90;;;;;;5095438;28;20069;-47
2022/06/06 01:54:06;;;;;;;10.60;9.50;;;16.10;99.90;;;;;;5088894;28;20020;-47
2022/06/06 01:56:41;;;;;;;10.75;9.65;;;16.10;99.90;;;;;;5075746;28;20058;-46
2022/06/06 01:59:06;;;;;;;11.13;10.15;;;16.10;99.90;;;;;;5067756;28;20072;-46
2022/06/06 02:01:32;;;;;;;10.20;9.20;;;16.10;99.90;;;;;;5090306;28;20120;-46
2022/06/06 02:03:58;;;;;;;11.77;10.30;;;16.10;99.90;;;;;;5096555;28;20031;-46
2022/06/06 02:06:25;;;;;;;11.35;10.13;;;16.10;99.90;;;;;;5091304;28;20019;-47
2022/06/06 02:08:51;;;;;;;10.82;9.80;;;16.10;99.90;;;;;;5082501;28;20032;-48
2022/06/06 02:11:18;;;;;;;11.50;9.93;;;16.10;99.90;;;;;;5079319;28;20074;-47
2022/06/06 02:13:44;;;;;;;11.45;10.35;;;16.10;99.90;;;;;;5079848;28;20103;-48
2022/06/06 02:16:10;;;;;;;11.00;9.90;;;16.10;99.90;;;;;;5079830;28;20024;-47
2022/06/06 02:18:36;;;;;;;10.95;9.75;;;16.10;99.90;;;;;;5077887;28;20020;-47
2022/06/06 02:21:03;;;;;;;11.02;10.02;;;16.10;99.90;;;;;;5080270;28;20058;-46
2022/06/06 02:23:29;;;;;;;10.90;9.90;;;16.10;99.90;;;;;;5078906;28;20056;-47
2022/06/06 02:25:55;;;;;;;11.90;10.73;;;16.10;99.90;;;;;;5081007;28;20016;-46
2022/06/06 02:28:21;;;;;;;11.43;10.43;;;16.10;99.90;;;;;;5078921;28;20020;-47
2022/06/06 02:30:46;;;;;;;12.52;11.25;;;16.10;99.90;;;;;;5079876;28;20024;-46
2022/06/06 02:33:12;;;;;;;11.52;10.32;;;16.10;99.90;;;;;;5094701;28;20024;-46
2022/06/06 02:35:40;;;;;;;12.05;10.88;;;16.20;99.90;;;;;;5069350;28;20035;-46
2022/06/06 02:38:08;;;;;;;11.98;10.88;;;16.20;99.90;;;;;;5094403;28;20497;-48
2022/06/06 02:40:34;;;;;;;12.80;11.60;;;16.20;99.90;;;;;;5098440;28;20020;-47
2022/06/06 02:43:00;;;;;;;12.40;11.20;;;16.20;99.90;;;;;;5089576;28;20128;-47
2022/06/06 02:45:25;;;;;;;13.35;12.07;;;16.20;99.90;;;;;;5099016;28;20027;-50
2022/06/06 02:47:53;;;;;;;13.68;12.40;;;16.20;99.90;;;;;;5089549;28;20050;-47
2022/06/06 02:50:21;;;;;;;13.70;12.40;;;16.20;99.90;;;;;;5095797;28;20359;-48
2022/06/06 02:52:47;;;;;;;14.02;12.57;;;16.30;99.90;;;;;;5087173;28;20483;-47
2022/06/06 02:55:14;;;;;;;13.02;11.65;;;16.30;99.90;;;;;;5095104;28;20028;-46
2022/06/06 02:57:43;;;;;;;13.15;11.85;;;16.20;99.90;;;;;;5078659;28;20482;-47
2022/06/06 03:00:12;;;;;;;11.45;10.43;;;16.30;99.90;;;;;;5072451;28;20024;-47
2022/06/06 03:02:38;;;;;;;12.10;10.95;;;16.30;99.90;;;;;;5095916;28;20027;-47
2022/06/06 03:05:06;;;;;;;10.50;9.50;;;16.30;99.90;;;;;;5068677;28;20024;-48
2022/06/06 03:07:53;;;;;;;11.02;9.95;;;16.30;99.90;;;;;;5066379;28;20020;-45
2022/06/06 03:10:40;;;;;;;13.18;8.52;;;16.30;99.90;;;;;;5086137;28;20020;-46
2022/06/06 03:13:36;;;;;;;10.32;9.23;;;16.30;99.90;;;;;;5096982;28;20027;-46
2022/06/06 03:22:43;;;;;;;7.60;6.90;;;16.40;99.90;;;;;;5088120;28;20043;-47
2022/06/06 03:25:16;;;;;;;6.82;6.20;;;16.30;99.90;;;;;;5084903;28;20889;-46
2022/06/06 03:28:15;;;;;;;7.05;6.35;;;16.30;99.90;;;;;;5091257;28;20043;-46
2022/06/06 03:30:51;;;;;;;6.78;6.10;;;16.30;99.90;;;;;;5088657;28;20031;-47
2022/06/06 03:33:36;;;;;;;6.70;6.10;;;16.30;99.90;;;;;;5087658;28;20498;-47
2022/06/06 03:36:16;;;;;;;8.52;7.15;;;16.30;99.90;;;;;;5066967;28;20154;-49
2022/06/06 03:39:06;;;;;;;7.30;6.70;;;16.30;99.90;;;;;;5091822;28;20054;-46
2022/06/06 03:41:44;;;;;;;7.78;7.05;;;16.30;99.90;;;;;;5069664;28;20024;-46
2022/06/06 03:44:30;;;;;;;8.43;7.28;;;16.30;99.90;;;;;;5095734;28;20020;-46
2022/06/06 03:47:18;;;;;;;8.25;7.45;;;16.30;99.90;;;;;;5071458;28;20061;-46
2022/06/06 03:50:07;;;;;;;8.18;7.35;;;16.30;99.90;;;;;;5093742;28;20055;-46
2022/06/06 03:52:48;;;;;;;7.60;6.90;;;16.30;99.90;;;;;;5086389;28;20032;-46
2022/06/06 03:55:32;;;;;;;8.50;7.72;;;16.30;99.90;;;;;;5080532;28;20107;-47
2022/06/06 03:58:00;;;;;;;8.38;7.57;;;16.20;99.90;;;;;;5092349;28;20031;-49
2022/06/06 04:00:27;;;;;;;8.13;7.20;;;16.30;99.90;;;;;;5094733;28;20016;-50
2022/06/06 04:02:55;;;;;;;9.55;7.78;;;16.20;99.90;;;;;;5092697;28;20020;-47
2022/06/06 04:05:24;;;;;;;8.23;7.43;;;16.20;99.90;;;;;;5089428;28;20065;-46
2022/06/06 04:07:50;;;;;;;7.43;6.72;;;16.20;99.90;;;;;;5074740;28;20031;-46
2022/06/06 04:10:16;;;;;;;7.85;7.05;;;16.20;99.90;;;;;;5084707;28;20020;-46
2022/06/06 04:13:12;;;;;;;8.00;7.20;;;16.20;99.90;;;;;;5099689;28;20057;-47
2022/06/06 04:15:58;;;;;;;7.57;6.88;;;16.10;99.90;;;;;;5087015;28;20030;-47
2022/06/06 04:18:27;;;;;;;7.00;6.35;;;16.20;99.90;;;;;;5089467;28;20017;-46
2022/06/06 04:20:58;;;;;;;6.85;6.25;;;16.20;99.90;;;;;;5070653;28;20020;-46
2022/06/06 04:23:37;;;;;;;6.80;6.22;;;16.20;99.90;;;;;;5093001;28;20016;-47
2022/06/06 04:26:24;;;;;;;6.70;6.13;;;16.10;99.90;;;;;;5090249;28;20061;-47
2022/06/06 04:29:03;;;;;;;8.18;6.22;;;16.20;99.90;;;;;;5094949;28;20111;-50
2022/06/06 04:31:48;;;;;;;6.78;6.07;;;16.10;99.90;;;;;;5069887;28;20024;-49
2022/06/06 04:34:48;;;;;;;6.95;6.25;;;16.10;99.90;;;;;;5089952;28;20502;-48
2022/06/06 04:37:44;;;;;;;6.78;6.18;;;16.10;99.90;;;;;;5078889;28;20032;-48
2022/06/06 04:40:36;;;;;;;6.75;6.07;;;16.10;99.90;;;;;;5102508;28;20012;-48
2022/06/06 04:43:24;;;;;;;6.70;6.10;;;16.00;99.90;;;;;;5073837;28;20081;-47
2022/06/06 04:45:56;;;;;;;6.65;5.85;;;16.00;99.90;;;;;;5078751;28;20437;-51
2022/06/06 04:48:22;;;;;;;6.90;6.28;;;16.00;99.90;;;;;;5093056;28;20032;-47
2022/06/06 04:50:48;;;;;;;6.38;5.78;;;16.10;99.90;;;;;;5096691;28;20066;-48
2022/06/06 04:53:18;;;;;;;6.80;6.20;;;16.20;99.90;;;;;;5068510;28;20493;-50
2022/06/06 04:55:46;;;;;;;5.93;5.43;;;16.30;99.90;;;;;;5085971;28;20099;-49
2022/06/06 04:58:13;;;;;;;6.25;5.65;;;16.30;99.90;;;;;;5091596;28;20021;-49
2022/06/06 05:00:40;;;;;;;6.22;5.65;;;16.40;99.90;;;;;;5100903;28;20495;-48
2022/06/06 05:03:06;;;;;;;6.30;5.65;;;16.40;99.90;;;;;;5091948;28;20107;-51
2022/06/06 05:05:50;;;;;;;6.22;5.55;;;16.40;99.90;;;;;;5095446;28;20085;-49
2022/06/06 05:08:37;;;;;;;5.45;5.05;;;16.40;99.90;;;;;;5081421;28;20017;-47
2022/06/06 05:11:20;;;;;;;5.38;4.88;;;16.40;99.90;;;;;;5093321;28;20028;-48
2022/06/06 05:14:07;;;;;;;5.85;5.28;;;16.40;99.90;;;;;;5083097;28;20035;-47
2022/06/06 05:16:42;;;;;;;6.03;5.28;;;16.30;99.90;;;;;;5064775;28;20116;-50
2022/06/06 05:19:38;;;;;;;6.18;4.93;;;16.30;99.90;;;;;;5092570;28;20038;-46
2022/06/06 05:22:36;;;;;;;5.23;4.80;;;16.30;99.90;;;;;;5088805;28;20047;-47
2022/06/06 05:25:12;;;;;;;5.15;4.70;;;16.30;99.90;;;;;;5070767;28;20099;-48
2022/06/06 05:28:01;;;;;;;5.63;4.75;;;16.30;99.90;;;;;;5093221;28;20027;-47
2022/06/06 05:30:34;;;;;;;5.18;4.57;;;16.30;99.90;;;;;;5092785;28;20426;-48
2022/06/06 05:33:09;;;;;;;4.45;4.05;;;16.30;99.90;;;;;;5093075;28;20035;-51
2022/06/06 05:36:07;;;;;;;5.65;5.15;;;16.30;99.90;;;;;;5070268;28;21214;-48
2022/06/06 05:38:51;;;;;;;5.35;4.85;;;16.30;99.90;;;;;;5102403;28;20012;-48
2022/06/06 05:41:49;;;;;;;7.63;5.78;;;16.30;99.90;;;;;;5083961;28;20043;-51
2022/06/06 05:44:22;;;;;;;6.07;4.57;;;16.20;99.90;;;;;;5072663;28;20109;-47
2022/06/06 05:47:04;;;;;;;5.90;5.00;;;16.20;99.90;;;;;;5073961;28;20198;-48
2022/06/06 05:49:44;;;;;;;6.57;5.95;;;16.20;99.90;;;;;;5092199;28;20012;-52
2022/06/06 05:52:29;;;;;;;6.88;6.28;;;16.20;99.90;;;;;;5088953;28;20012;-51
2022/06/06 05:55:12;;;;;;;6.65;6.00;;;16.20;99.90;;;;;;5093353;28;20032;-48
2022/06/06 05:57:47;;;;;;;6.65;5.93;;;16.20;99.90;;;;;;5098533;28;20031;-51
2022/06/06 06:00:43;;;;;;;6.65;6.00;;;16.20;99.90;;;;;;5059411;28;20390;-48
2022/06/06 06:03:30;;;;;;;8.93;6.88;;;16.20;99.90;;;;;;5089975;28;20158;-46
2022/06/06 06:06:08;;;;;;;7.95;6.70;;;16.20;99.90;;;;;;5092718;28;20031;-50
2022/06/06 06:08:34;;;;;;;7.78;6.97;;;16.20;99.90;;;;;;5086582;28;20516;-48
2022/06/06 06:11:23;;;;;;;10.13;8.13;;;16.20;99.90;;;;;;5077299;28;20023;-49
2022/06/06 06:13:54;;;;;;;11.18;8.25;;;16.20;99.90;;;;;;5099987;28;20024;-51
2022/06/06 06:16:22;;;;;;;10.10;8.15;;;16.20;99.90;;;;;;5091683;28;20024;-50
2022/06/06 06:18:56;;;;;;;9.75;8.50;;;16.20;99.90;;;;;;5079190;28;20021;-49
2022/06/06 06:21:27;;;;;;;9.43;7.90;;;16.20;99.90;;;;;;5068560;28;20020;-47
2022/06/06 06:24:01;;;;;;;11.68;9.38;;;16.20;99.90;;;;;;5094877;28;20445;-48
2022/06/06 06:26:30;;;;;;;9.57;8.10;;;16.30;99.90;;;;;;5088254;28;20024;-48
2022/06/06 06:29:01;;;;;;;10.30;8.02;;;16.30;99.90;;;;;;5092885;28;20029;-47
2022/06/06 06:31:46;;;;;;;13.27;9.55;;;16.30;99.90;;;;;;5080517;28;20016;-48
2022/06/06 06:34:31;;;;;;;18.75;9.80;;;16.30;99.90;;;;;;5082271;28;20023;-49
2022/06/06 06:37:14;;;;;;;12.95;10.32;;;16.40;99.90;;;;;;5090494;28;20030;-48
2022/06/06 06:40:12;;;;;;;13.80;10.13;;;16.40;99.90;;;;;;5080570;28;20119;-46
2022/06/06 06:42:52;;;;;;;16.90;10.60;;;16.50;99.90;;;;;;5047416;28;20081;-47
2022/06/06 06:45:28;;;;;;;14.73;10.38;;;16.70;99.90;;;;;;5097963;28;20020;-47
2022/06/06 06:48:03;;;;;;;;;;;16.80;99.90;;;;;;5071242;28;20024;-49
2022/06/06 06:50:56;;;;;;;15.77;11.85;;;17.10;99.90;;;;;;5096924;28;19904;-50
2022/06/06 06:53:37;;;;;;;17.27;12.18;;;17.30;99.90;;;;;;5068727;28;20017;-48
2022/06/06 06:56:11;;;;;;;16.00;11.82;;;17.40;99.90;;;;;;5099628;28;20492;-47
2022/06/06 06:58:52;;;;;;;18.08;13.48;;;17.50;99.90;;;;;;5091203;28;20058;-47
2022/06/06 07:08:32;;;;;;;18.48;13.07;;;17.40;99.90;;;;;;5089485;28;20022;-47
2022/06/06 07:10:55;;;;;;;15.80;13.55;;;17.40;99.90;;;;;;5091759;28;20058;-46
2022/06/06 07:13:37;;;;;;;21.63;13.70;;;17.40;99.90;;;;;;5090139;28;20079;-48
2022/06/06 07:16:12;;;;;;;18.45;13.13;;;17.30;99.90;;;;;;5067793;28;20401;-48
2022/06/06 07:18:38;;;;;;;16.65;12.38;;;17.30;99.90;;;;;;5089925;28;20520;-47
2022/06/06 07:21:07;;;;;;;17.55;13.48;;;17.30;99.90;;;;;;5070037;28;20720;-47
2022/06/06 07:23:38;;;;;;;14.95;11.80;;;17.20;99.90;;;;;;5076573;28;20056;-49
2022/06/06 07:26:04;;;;;;;15.50;11.23;;;17.20;99.90;;;;;;5051975;28;20410;-48
2022/06/06 07:28:30;;;;;;;15.40;11.35;;;17.30;99.90;;;;;;5082739;28;20016;-50
2022/06/06 07:31:23;;;;;;;15.38;11.13;;;17.30;99.90;;;;;;5070624;28;20028;-48
2022/06/06 07:34:04;;;;;;;14.77;11.10;;;17.30;99.90;;;;;;5085598;28;20028;-47
2022/06/06 07:36:56;;;;;;;13.30;10.30;;;17.30;99.90;;;;;;5077611;28;20020;-49
2022/06/06 07:39:43;;;;;;;11.93;8.80;;;17.30;99.90;;;;;;5079606;28;20024;-51
2022/06/06 07:42:11;;;;;;;13.45;8.70;;;17.20;99.90;;;;;;5074955;28;20060;-47
2022/06/06 07:45:03;;;;;;;10.82;8.85;;;17.00;99.90;;;;;;5071409;28;20081;-46
2022/06/06 07:47:55;;;;;;;10.43;8.40;;;17.00;99.90;;;;;;5066349;28;20110;-48
2022/06/06 07:50:25;;;;;;;11.30;8.68;;;16.90;99.90;;;;;;5080416;28;20077;-46
2022/06/06 07:53:04;;;;;;;14.13;9.10;;;17.00;99.90;;;;;;5082835;28;20028;-47
2022/06/06 07:55:38;;;;;;;15.30;10.15;;;17.00;99.90;;;;;;5078022;28;20017;-46
2022/06/06 07:58:18;;;;;;;12.60;8.98;;;17.20;99.90;;;;;;5078715;28;20386;-48
2022/06/06 08:01:08;;;;;;;11.90;8.95;;;17.20;99.90;;;;;;5074505;28;20494;-47
2022/06/06 08:03:47;;;;;;;13.63;7.93;;;17.20;99.90;;;;;;5084034;28;20035;-49
2022/06/06 08:06:38;;;;;;;10.75;8.13;;;17.30;99.90;;;;;;5087497;28;20035;-47
2022/06/06 08:09:54;;;;;;;10.48;7.72;;;17.20;99.90;;;;;;5085466;28;20425;-47
2022/06/06 08:12:40;;;;;;;10.88;7.88;;;17.20;99.90;;;;;;5045739;28;20462;-47
2022/06/06 08:15:22;;;;;;;9.68;7.30;;;17.50;99.90;;;;;;5085389;28;20042;-46
2022/06/06 08:18:25;;;;;;;9.93;7.25;;;17.80;99.90;;;;;;5084566;28;20024;-51
2022/06/06 08:20:54;;;;;;;10.05;7.40;;;17.80;99.90;;;;;;5091356;28;20024;-50
2022/06/06 08:23:21;;;;;;;8.65;7.03;;;17.90;99.90;;;;;;5092050;28;20028;-47
2022/06/06 08:25:49;;;;;;;8.50;6.47;;;17.80;99.90;;;;;;5076323;28;20513;-47
2022/06/06 08:28:16;;;;;;;7.90;6.22;;;17.80;99.90;;;;;;5080362;28;20024;-48
2022/06/06 08:30:44;;;;;;;7.03;6.30;;;17.80;99.90;;;;;;5087287;28;20110;-46
2022/06/06 08:33:10;;;;;;;8.30;6.53;;;17.80;99.90;;;;;;5076511;28;20394;-48
2022/06/06 08:36:03;;;;;;;9.90;7.20;;;17.70;99.90;;;;;;5087042;28;20042;-47
2022/06/06 08:38:38;;;;;;;8.45;6.55;;;17.50;99.90;;;;;;5084074;28;20012;-47
2022/06/06 08:41:31;;;;;;;12.00;7.07;;;17.30;99.90;;;;;;5088483;28;20077;-47
2022/06/06 08:44:33;;;;;;;10.95;8.13;;;17.20;99.90;;;;;;5075005;28;20032;-46
2022/06/06 08:47:28;;;;;;;8.95;7.15;;;17.10;99.90;;;;;;5045143;28;20490;-47
2022/06/06 08:53:34;;;;;;;9.88;7.40;;;16.90;99.90;;;;;;5088726;28;20106;-46
2022/06/06 08:56:24;;;;;;;8.10;6.40;;;16.90;99.90;;;;;;5076311;28;20166;-46
2022/06/06 08:58:56;;;;;;;8.43;6.70;;;16.90;99.90;;;;;;5084297;28;20013;-47
2022/06/06 09:01:43;;;;;;;7.30;6.38;;;17.00;99.90;;;;;;5083760;28;20474;-47
2022/06/06 09:04:23;;;;;;;;;;;17.00;99.90;;;;;;5086993;28;20116;-47
2022/06/06 09:07:04;;;;;;;6.80;6.05;;;17.10;99.90;;;;;;5079544;28;19904;-46
2022/06/06 09:09:45;;;;;;;8.45;5.22;;;17.30;99.90;;;;;;5087294;28;20474;-47
2022/06/06 09:12:28;;;;;;;5.97;5.35;;;17.50;99.90;;;;;;5079901;28;20017;-48
2022/06/06 09:15:33;;;;;;;6.03;5.40;;;17.70;99.90;;;;;;5082265;28;20055;-47
2022/06/06 09:18:29;;;;;;;6.75;5.55;;;17.90;99.90;;;;;;5040692;28;20063;-47
2022/06/06 09:21:04;;;;;;;6.55;5.18;;;18.10;99.90;;;;;;5080889;28;20032;-49
2022/06/06 09:24:04;;;;;;;6.20;4.68;;;18.20;99.90;;;;;;5081724;28;20422;-47
2022/06/06 09:26:33;;;;;;;6.30;5.30;;;18.10;99.90;;;;;;5080206;28;20039;-46
2022/06/06 09:29:36;;;;;;;6.57;5.10;;;18.30;99.90;;;;;;5081592;28;20030;-47
2022/06/06 09:32:42;;;;;;;5.55;4.95;;;18.50;99.90;;;;;;5080241;28;20497;-48
2022/06/06 09:35:41;;;;;;;7.40;5.18;;;18.60;99.90;;;;;;5083287;28;20025;-46
2022/06/06 09:38:27;;;;;;;7.97;5.57;;;18.70;99.90;;;;;;5088201;28;20024;-48
2022/06/06 09:40:57;;;;;;;6.20;4.72;;;18.90;99.90;;;;;;5081980;28;20028;-48
2022/06/06 09:43:55;;;;;;;6.82;5.15;;;19.00;99.90;;;;;;5079538;28;20027;-49
2022/06/06 09:46:23;;;;;;;7.85;5.40;;;19.00;99.90;;;;;;5078961;28;20386;-48
2022/06/06 09:49:10;;;;;;;5.70;5.00;;;19.10;99.90;;;;;;5079291;28;20714;-51
2022/06/06 09:52:09;;;;;;;6.35;4.75;;;19.10;99.90;;;;;;5078750;28;20027;-52
2022/06/06 10:00:46;;;;;;;9.27;6.10;;;19.00;99.90;;;;;;5079550;28;20031;-52
2022/06/06 10:03:42;;;;;;;8.00;5.70;;;19.10;99.90;;;;;;5076700;28;20486;-48
2022/06/06 10:06:17;;;;;;;7.37;5.73;;;19.20;99.90;;;;;;5079738;28;20050;-49
2022/06/06 10:09:09;;;;;;;6.05;5.40;;;19.20;99.90;;;;;;5079933;28;20021;-48
2022/06/06 10:11:56;;;;;;;6.22;5.38;;;19.40;99.90;;;;;;5082812;28;20028;-50
2022/06/06 10:14:40;;;;;;;5.10;4.60;;;19.50;99.90;;;;;;5077451;28;20506;-47
2022/06/06 10:17:31;;;;;;;8.43;5.57;;;19.70;99.90;;;;;;5080220;28;20056;-49
2022/06/06 10:20:09;;;;;;;7.13;5.75;;;19.80;99.90;;;;;;5071260;28;20024;-51
2022/06/06 10:22:44;;;;;;;8.00;5.88;;;19.90;99.90;;;;;;5078409;28;20509;-48
2022/06/06 10:25:12;;;;;;;7.85;5.43;;;20.00;99.90;;;;;;5085828;28;20032;-49
2022/06/06 10:27:44;;;;;;;5.88;4.95;;;20.10;99.90;;;;;;5077060;28;20027;-48
2022/06/06 10:30:37;;;;;;;6.50;5.43;;;20.20;99.90;;;;;;5081737;28;20031;-50
2022/06/06 10:33:34;;;;;;;6.22;5.22;;;20.10;99.90;;;;;;5073790;28;20111;-47
2022/06/06 10:36:34;;;;;;;7.40;5.80;;;19.80;99.90;;;;;;5083476;28;20078;-48
2022/06/06 10:39:13;;;;;;;7.25;5.47;;;19.70;99.90;;;;;;5080217;28;20050;-48
2022/06/06 10:42:17;;;;;;;7.57;6.07;;;19.90;99.90;;;;;;5078546;28;20032;-51
2022/06/06 10:45:16;;;;;;;7.63;5.82;;;19.90;99.90;;;;;;5004302;28;20503;-49
2022/06/06 10:47:41;;;;;;;6.30;5.25;;;19.90;99.90;;;;;;5005879;28;20045;-51
2022/06/06 10:50:33;;;;;;;8.10;6.13;;;20.00;99.90;;;;;;5056470;28;20490;-53
2022/06/06 10:53:11;;;;;;;5.22;4.65;;;19.90;99.90;;;;;;5083710;28;20039;-47
2022/06/06 10:56:01;;;;;;;6.18;4.93;;;19.80;99.90;;;;;;5079142;28;20052;-47
2022/06/06 10:58:46;;;;;;;6.40;5.07;;;19.80;99.90;;;;;;5078797;28;20017;-47
2022/06/06 11:01:29;;;;;;;7.13;5.93;;;19.80;99.90;;;;;;5068567;28;20104;-47
2022/06/06 11:04:32;;;;;;;5.38;4.47;;;19.70;99.90;;;;;;5079100;28;20024;-52
2022/06/06 11:07:21;;;;;;;6.80;4.82;;;19.90;99.90;;;;;;5079706;28;20027;-48
2022/06/06 11:10:36;;;;;;;5.70;4.63;;;20.20;99.90;;;;;;5081424;28;20031;-50
2022/06/06 11:13:11;;;;;;;7.72;4.70;;;20.30;99.90;;;;;;5079916;28;20023;-52
2022/06/06 11:15:52;;;;;;;6.05;4.95;;;20.10;99.90;;;;;;5078514;28;20020;-52
2022/06/06 11:18:39;;;;;;;6.70;4.72;;;20.00;99.90;;;;;;5078335;28;20052;-51
2022/06/06 11:21:16;;;;;;;5.35;4.30;;;19.80;99.90;;;;;;5079768;28;20017;-50
2022/06/06 11:24:01;;;;;;;5.68;4.53;;;19.60;99.90;;;;;;5078383;28;20430;-53
2022/06/06 11:26:32;;;;;;;5.97;5.25;;;19.40;99.90;;;;;;5078004;28;20028;-51
2022/06/06 11:29:04;;;;;;;4.82;4.32;;;19.20;99.90;;;;;;5079509;28;20050;-49
2022/06/06 11:31:49;;;;;;;5.00;4.20;;;19.10;99.90;;;;;;5077805;28;20016;-49
2022/06/06 11:34:27;;;;;;;5.50;4.00;;;19.00;99.90;;;;;;5077444;28;20033;-51
2022/06/06 11:37:02;;;;;;;5.25;4.75;;;19.00;99.90;;;;;;5068360;28;20491;-47
2022/06/06 11:39:46;;;;;;;6.15;5.47;;;19.10;99.90;;;;;;5078494;28;20023;-47
2022/06/06 11:42:30;;;;;;;5.35;4.78;;;19.60;99.90;;;;;;5080777;28;20026;-50
2022/06/06 11:45:04;;;;;;;6.82;4.88;;;20.00;99.90;;;;;;5074226;28;20024;-50
2022/06/06 11:47:45;;;;;;;6.18;5.13;;;20.20;99.90;;;;;;5081171;28;20020;-50
2022/06/06 11:50:32;;;;;;;8.43;5.55;;;20.20;99.90;;;;;;5071125;28;20024;-51
2022/06/06 11:53:28;;;;;;;5.88;4.90;;;20.20;99.90;;;;;;5082853;28;20165;-51
2022/06/06 11:55:59;;;;;;;5.35;4.60;;;20.20;99.90;;;;;;5080005;28;20070;-51
2022/06/06 11:59:12;;;;;;;7.70;5.30;;;20.50;99.90;;;;;;5077623;28;20016;-48
2022/06/06 12:02:08;;;;;;;5.93;5.32;;;20.80;99.90;;;;;;5077413;28;20032;-48
2022/06/06 12:05:09;;;;;;;4.47;3.67;;;21.10;99.90;;;;;;5079423;28;20099;-51
2022/06/06 12:07:46;;;;;;;5.78;5.18;;;21.20;99.90;;;;;;5067859;28;20444;-48
2022/06/06 12:10:26;;;;;;;6.00;4.85;;;21.30;99.90;;;;;;5077406;28;20087;-46
2022/06/06 12:13:19;;;;;;;6.47;5.00;;;21.30;99.90;;;;;;5068773;28;20025;-49
2022/06/06 12:16:16;;;;;;;5.65;5.10;;;21.20;99.90;;;;;;5077630;28;20021;-48
2022/06/06 12:19:00;;;;;;;4.85;4.43;;;21.20;99.90;;;;;;5077646;28;20103;-50
2022/06/06 12:21:45;;;;;;;5.78;4.63;;;21.10;99.90;;;;;;5076950;28;20028;-48
2022/06/06 12:24:44;;;;;;;4.35;3.83;;;21.10;99.90;;;;;;5077450;28;20048;-51
2022/06/06 12:27:26;;;;;;;5.13;4.60;;;21.00;99.90;;;;;;5078042;28;20028;-51
2022/06/06 12:29:51;;;;;;;6.78;3.85;;;21.10;99.90;;;;;;5068277;28;20037;-49
2022/06/06 12:32:26;;;;;;;5.35;4.30;;;21.10;99.90;;;;;;5077062;28;20028;-49
2022/06/06 12:34:51;;;;;;;4.25;3.75;;;21.30;99.90;;;;;;5077740;28;20502;-50
2022/06/06 12:37:25;;;;;;;4.22;3.20;;;21.40;99.90;;;;;;5080762;28;20024;-48
2022/06/06 12:40:03;;;;;;;6.43;3.55;;;21.60;99.90;;;;;;5074546;28;20470;-48
2022/06/06 12:42:35;;;;;;;3.38;3.08;;;21.70;99.90;;;;;;5080167;28;20042;-47
2022/06/06 12:45:19;;;;;;;3.10;2.80;;;21.80;99.90;;;;;;5074315;28;20028;-47
2022/06/06 12:47:57;;;;;;;3.20;2.67;;;21.50;99.90;;;;;;5084264;28;20488;-48
2022/06/06 12:50:49;;;;;;;4.78;3.10;;;21.50;99.90;;;;;;5077559;28;20062;-50
2022/06/06 12:53:28;;;;;;;3.17;2.60;;;21.60;99.90;;;;;;5080237;28;20024;-49
2022/06/06 12:56:18;;;;;;;3.15;2.30;;;21.60;99.90;;;;;;5083088;28;20028;-52
2022/06/06 12:58:49;;;;;;;2.30;2.10;;;21.70;97.30;;;;;;5081049;28;20017;-48
2022/06/06 13:01:40;;;;;;;2.50;2.30;;;21.60;98.00;;;;;;5069865;28;20016;-47
2022/06/06 13:04:21;;;;;;;2.60;1.85;;;21.70;98.50;;;;;;5083254;28;20056;-50
2022/06/06 13:07:12;;;;;;;2.67;1.88;;;21.60;99.30;;;;;;5076462;28;20021;-53
2022/06/06 13:09:40;;;;;;;4.07;2.10;;;21.40;98.30;;;;;;5072217;28;20028;-48
2022/06/06 13:12:22;;;;;;;3.95;2.17;;;21.20;99.50;;;;;;5081412;28;20028;-52
2022/06/06 13:15:29;;;;;;;1.60;1.50;;;21.00;97.70;;;;;;5081964;28;20028;-51
2022/06/06 13:18:24;;;;;;;2.92;2.50;;;20.80;99.90;;;;;;5016222;28;20483;-52
2022/06/06 13:20:55;;;;;;;2.35;2.15;;;20.60;99.90;;;;;;5087449;28;20059;-49
2022/06/06 13:23:42;;;;;;;2.28;2.08;;;20.50;99.90;;;;;;5079081;28;20081;-50
2022/06/06 13:26:16;;;;;;;3.25;2.42;;;20.40;99.90;;;;;;5088131;28;20085;-52
2022/06/06 13:28:55;;;;;;;2.83;2.50;;;20.40;99.90;;;;;;5080403;28;20320;-52
2022/06/06 13:31:29;;;;;;;2.38;2.17;;;20.70;99.90;;;;;;5079815;28;20027;-49
2022/06/06 13:34:19;;;;;;;4.03;2.30;;;21.00;99.90;;;;;;5072366;28;20497;-52
2022/06/06 13:37:11;;;;;;;4.10;2.10;;;21.30;99.90;;;;;;5080033;28;20036;-49
2022/06/06 13:40:02;;;;;;;2.33;2.10;;;21.50;99.90;;;;;;5080643;28;20819;-51
2022/06/06 13:42:48;;;;;;;2.13;2.00;;;21.70;99.90;;;;;;5081660;28;20116;-52
2022/06/06 13:45:29;;;;;;;3.88;2.20;;;21.80;99.90;;;;;;5076234;28;20024;-53
2022/06/06 13:48:26;;;;;;;2.40;1.98;;;21.90;99.90;;;;;;5086135;28;20020;-48
2022/06/06 13:51:10;;;;;;;1.80;1.67;;;22.00;99.90;;;;;;5080085;28;20013;-51
2022/06/06 13:54:04;;;;;;;2.70;1.52;;;22.20;96.90;;;;;;5079643;28;20026;-53
2022/06/06 13:57:02;;;;;;;2.08;1.60;;;22.10;96.80;;;;;;5079110;28;20016;-49
2022/06/06 13:59:46;;;;;;;2.05;1.90;;;21.70;95.70;;;;;;5055718;28;20062;-53
2022/06/06 14:02:21;;;;;;;2.28;1.90;;;21.60;97.50;;;;;;5075721;28;20023;-50
2022/06/06 14:05:24;;;;;;;1.40;1.30;;;21.60;96.10;;;;;;5073306;28;20499;-51
2022/06/06 14:08:16;;;;;;;1.10;1.10;;;21.50;96.50;;;;;;5079587;28;20030;-54
2022/06/06 14:10:54;;;;;;;3.88;2.00;;;21.40;96.20;;;;;;5069918;28;20016;-48
2022/06/06 14:13:46;;;;;;;2.85;1.27;;;21.40;96.10;;;;;;5079049;28;20074;-52